Terminal Aerodrome Forecast
Issued by NWS Sterling, VA

Current Version | Previous Version | Text Only | Print | Product List | Glossary Off
Versions: 1 2 3 4 5 6 7 8 9 10 11 12 13 14 15 16 17 18 19 20 21 22 23

000
FTUS41 KLWX 050102 AAA
TAFMRB
TAF AMD
KMRB 050102Z 0501/0524 06006KT 5SM -SHRA BR OVC018
     FM050500 09006KT 3SM -DZ BR OVC008
     FM051200 04005KT 3SM -DZ BR OVC008
     FM051500 02006KT 3SM -SHRA BR OVC010
     FM051800 02007KT 5SM -SHRA BR OVC015=

USA.gov is the U.S. government's official web portal to all federal, state and local government web resources and services.